sensor_id;sensor_type;location;lat;lon;timestamp;temperature;humidity
8888;DHT22;4480;52.370;9.748;2023-05-25T00:01:38;9.30;99.90
8888;DHT22;4480;52.370;9.748;2023-05-25T00:04:08;9.20;99.90
8888;DHT22;4480;52.370;9.748;2023-05-25T00:06:37;9.20;99.90
8888;DHT22;4480;52.370;9.748;2023-05-25T00:09:05;9.20;99.90
8888;DHT22;4480;52.370;9.748;2023-05-25T00:11:32;9.20;99.90
8888;DHT22;4480;52.370;9.748;2023-05-25T00:13:59;9.20;99.90
8888;DHT22;4480;52.370;9.748;2023-05-25T00:16:26;9.20;99.90
8888;DHT22;4480;52.370;9.748;2023-05-25T00:18:52;9.20;99.90
8888;DHT22;4480;52.370;9.748;2023-05-25T00:21:21;9.20;99.90
8888;DHT22;4480;52.370;9.748;2023-05-25T00:23:50;9.20;99.90
8888;DHT22;4480;52.370;9.748;2023-05-25T00:26:16;9.20;99.90
8888;DHT22;4480;52.370;9.748;2023-05-25T00:28:43;9.20;99.90
8888;DHT22;4480;52.370;9.748;2023-05-25T00:31:10;9.20;99.90
8888;DHT22;4480;52.370;9.748;2023-05-25T00:33:37;9.20;99.90
8888;DHT22;4480;52.370;9.748;2023-05-25T00:36:04;9.10;99.90
8888;DHT22;4480;52.370;9.748;2023-05-25T00:38:31;9.10;99.90
8888;DHT22;4480;52.370;9.748;2023-05-25T00:40:59;9.00;99.90
8888;DHT22;4480;52.370;9.748;2023-05-25T00:43:26;8.90;99.90
8888;DHT22;4480;52.370;9.748;2023-05-25T00:45:52;8.90;99.90
8888;DHT22;4480;52.370;9.748;2023-05-25T00:48:21;8.80;99.90
8888;DHT22;4480;52.370;9.748;2023-05-25T00:50:53;8.80;99.90
8888;DHT22;4480;52.370;9.748;2023-05-25T00:53:22;8.80;99.90
8888;DHT22;4480;52.370;9.748;2023-05-25T00:55:54;8.80;99.90
8888;DHT22;4480;52.370;9.748;2023-05-25T00:58:30;8.70;99.90
8888;DHT22;4480;52.370;9.748;2023-05-25T01:00:59;8.70;99.90
8888;DHT22;4480;52.370;9.748;2023-05-25T01:03:30;8.60;99.90
8888;DHT22;4480;52.370;9.748;2023-05-25T01:06:01;8.60;99.90
8888;DHT22;4480;52.370;9.748;2023-05-25T01:08:33;8.60;99.90
8888;DHT22;4480;52.370;9.748;2023-05-25T01:11:02;8.60;99.90
8888;DHT22;4480;52.370;9.748;2023-05-25T01:13:31;8.60;99.90
8888;DHT22;4480;52.370;9.748;2023-05-25T01:16:03;8.50;99.90
8888;DHT22;4480;52.370;9.748;2023-05-25T01:18:30;8.50;99.90
8888;DHT22;4480;52.370;9.748;2023-05-25T01:21:04;8.40;99.90
8888;DHT22;4480;52.370;9.748;2023-05-25T01:23:41;8.40;99.90
8888;DHT22;4480;52.370;9.748;2023-05-25T01:26:12;8.40;99.90
8888;DHT22;4480;52.370;9.748;2023-05-25T01:28:43;8.30;99.90
8888;DHT22;4480;52.370;9.748;2023-05-25T01:31:12;8.30;99.90
8888;DHT22;4480;52.370;9.748;2023-05-25T01:33:41;8.30;99.90
8888;DHT22;4480;52.370;9.748;2023-05-25T01:36:09;8.30;99.90
8888;DHT22;4480;52.370;9.748;2023-05-25T01:38:36;8.20;99.90
8888;DHT22;4480;52.370;9.748;2023-05-25T01:41:03;8.20;99.90
8888;DHT22;4480;52.370;9.748;2023-05-25T01:43:30;8.20;99.90
8888;DHT22;4480;52.370;9.748;2023-05-25T01:46:01;8.20;99.90
8888;DHT22;4480;52.370;9.748;2023-05-25T01:48:36;8.10;99.90
8888;DHT22;4480;52.370;9.748;2023-05-25T01:51:13;8.10;99.90
8888;DHT22;4480;52.370;9.748;2023-05-25T01:53:47;8.10;99.90
8888;DHT22;4480;52.370;9.748;2023-05-25T01:56:15;8.00;99.90
8888;DHT22;4480;52.370;9.748;2023-05-25T01:58:44;8.00;99.90
8888;DHT22;4480;52.370;9.748;2023-05-25T02:01:13;7.90;99.90
8888;DHT22;4480;52.370;9.748;2023-05-25T02:03:41;7.80;99.90
8888;DHT22;4480;52.370;9.748;2023-05-25T02:06:09;7.80;99.90
8888;DHT22;4480;52.370;9.748;2023-05-25T02:08:37;7.80;99.90
8888;DHT22;4480;52.370;9.748;2023-05-25T02:11:04;7.80;99.90
8888;DHT22;4480;52.370;9.748;2023-05-25T02:13:31;7.80;99.90
8888;DHT22;4480;52.370;9.748;2023-05-25T02:15:58;7.90;99.90
8888;DHT22;4480;52.370;9.748;2023-05-25T02:18:24;7.90;99.90
8888;DHT22;4480;52.370;9.748;2023-05-25T02:20:52;8.00;99.90
8888;DHT22;4480;52.370;9.748;2023-05-25T02:23:18;8.00;99.90
8888;DHT22;4480;52.370;9.748;2023-05-25T02:25:47;7.90;99.90
8888;DHT22;4480;52.370;9.748;2023-05-25T02:28:16;7.90;99.90
8888;DHT22;4480;52.370;9.748;2023-05-25T02:30:43;7.90;99.90
8888;DHT22;4480;52.370;9.748;2023-05-25T02:33:10;8.00;99.90
8888;DHT22;4480;52.370;9.748;2023-05-25T02:35:38;8.00;99.90
8888;DHT22;4480;52.370;9.748;2023-05-25T02:38:06;8.00;99.90
8888;DHT22;4480;52.370;9.748;2023-05-25T02:40:32;8.20;99.90
8888;DHT22;4480;52.370;9.748;2023-05-25T02:43:01;8.20;99.90
8888;DHT22;4480;52.370;9.748;2023-05-25T02:45:27;8.30;99.90
8888;DHT22;4480;52.370;9.748;2023-05-25T02:47:54;8.40;99.90
8888;DHT22;4480;52.370;9.748;2023-05-25T02:50:21;8.40;99.90
8888;DHT22;4480;52.370;9.748;2023-05-25T02:52:48;8.50;99.90
8888;DHT22;4480;52.370;9.748;2023-05-25T02:55:15;8.50;99.90
8888;DHT22;4480;52.370;9.748;2023-05-25T02:57:43;8.50;99.90
8888;DHT22;4480;52.370;9.748;2023-05-25T03:00:12;8.60;99.90
8888;DHT22;4480;52.370;9.748;2023-05-25T03:02:39;8.60;99.90
8888;DHT22;4480;52.370;9.748;2023-05-25T03:05:06;8.60;99.90
8888;DHT22;4480;52.370;9.748;2023-05-25T03:07:33;8.60;99.90
8888;DHT22;4480;52.370;9.748;2023-05-25T03:10:00;8.70;99.90
8888;DHT22;4480;52.370;9.748;2023-05-25T03:12:27;8.70;99.90
8888;DHT22;4480;52.370;9.748;2023-05-25T03:14:54;8.70;99.90
8888;DHT22;4480;52.370;9.748;2023-05-25T03:17:22;8.80;99.90
8888;DHT22;4480;52.370;9.748;2023-05-25T03:19:49;8.80;99.90
8888;DHT22;4480;52.370;9.748;2023-05-25T03:22:15;8.80;99.90
8888;DHT22;4480;52.370;9.748;2023-05-25T03:24:42;8.80;99.90
8888;DHT22;4480;52.370;9.748;2023-05-25T03:27:09;8.90;99.90
8888;DHT22;4480;52.370;9.748;2023-05-25T03:29:36;8.80;99.90
8888;DHT22;4480;52.370;9.748;2023-05-25T03:32:03;8.80;99.90
8888;DHT22;4480;52.370;9.748;2023-05-25T03:34:31;8.80;99.90
8888;DHT22;4480;52.370;9.748;2023-05-25T03:36:59;8.80;99.90
8888;DHT22;4480;52.370;9.748;2023-05-25T03:39:26;8.80;99.90
8888;DHT22;4480;52.370;9.748;2023-05-25T03:41:53;8.80;99.90
8888;DHT22;4480;52.370;9.748;2023-05-25T03:44:20;8.80;99.90
8888;DHT22;4480;52.370;9.748;2023-05-25T03:46:47;8.80;99.90
8888;DHT22;4480;52.370;9.748;2023-05-25T03:49:14;8.80;99.90
8888;DHT22;4480;52.370;9.748;2023-05-25T03:51:42;8.80;99.90
8888;DHT22;4480;52.370;9.748;2023-05-25T03:54:09;8.90;99.90
8888;DHT22;4480;52.370;9.748;2023-05-25T03:56:35;8.90;99.90
8888;DHT22;4480;52.370;9.748;2023-05-25T03:59:02;8.90;99.90
8888;DHT22;4480;52.370;9.748;2023-05-25T04:01:29;8.90;99.90
8888;DHT22;4480;52.370;9.748;2023-05-25T04:03:56;8.90;99.90
8888;DHT22;4480;52.370;9.748;2023-05-25T04:06:23;8.90;99.90
8888;DHT22;4480;52.370;9.748;2023-05-25T04:11:44;9.00;99.90
8888;DHT22;4480;52.370;9.748;2023-05-25T04:14:11;9.10;99.90
8888;DHT22;4480;52.370;9.748;2023-05-25T04:16:38;9.10;99.90
8888;DHT22;4480;52.370;9.748;2023-05-25T04:19:05;9.20;99.90
8888;DHT22;4480;52.370;9.748;2023-05-25T04:21:32;9.20;99.90
8888;DHT22;4480;52.370;9.748;2023-05-25T04:23:59;9.20;99.90
8888;DHT22;4480;52.370;9.748;2023-05-25T04:26:26;9.30;99.90
8888;DHT22;4480;52.370;9.748;2023-05-25T04:28:56;9.30;99.90
8888;DHT22;4480;52.370;9.748;2023-05-25T04:31:23;9.40;99.90
8888;DHT22;4480;52.370;9.748;2023-05-25T04:33:51;9.40;99.90
8888;DHT22;4480;52.370;9.748;2023-05-25T04:36:20;9.40;99.90
8888;DHT22;4480;52.370;9.748;2023-05-25T04:38:47;9.40;99.90
8888;DHT22;4480;52.370;9.748;2023-05-25T04:41:16;9.50;99.90
8888;DHT22;4480;52.370;9.748;2023-05-25T04:43:43;9.50;99.90
8888;DHT22;4480;52.370;9.748;2023-05-25T04:46:12;9.50;99.90
8888;DHT22;4480;52.370;9.748;2023-05-25T04:48:41;9.60;99.90
8888;DHT22;4480;52.370;9.748;2023-05-25T04:51:08;9.70;99.90
8888;DHT22;4480;52.370;9.748;2023-05-25T04:53:36;9.70;99.90
8888;DHT22;4480;52.370;9.748;2023-05-25T04:56:03;9.80;99.90
8888;DHT22;4480;52.370;9.748;2023-05-25T04:58:29;9.80;99.90
8888;DHT22;4480;52.370;9.748;2023-05-25T05:00:57;9.90;99.90
8888;DHT22;4480;52.370;9.748;2023-05-25T05:03:26;10.00;99.90
8888;DHT22;4480;52.370;9.748;2023-05-25T05:05:52;10.10;99.90
8888;DHT22;4480;52.370;9.748;2023-05-25T05:08:19;10.10;99.90
8888;DHT22;4480;52.370;9.748;2023-05-25T05:10:46;10.10;99.90
8888;DHT22;4480;52.370;9.748;2023-05-25T05:13:12;10.20;99.90
8888;DHT22;4480;52.370;9.748;2023-05-25T05:15:39;10.20;99.90
8888;DHT22;4480;52.370;9.748;2023-05-25T05:18:06;10.20;99.90
8888;DHT22;4480;52.370;9.748;2023-05-25T05:20:35;10.20;99.90
8888;DHT22;4480;52.370;9.748;2023-05-25T05:23:01;10.10;99.90
8888;DHT22;4480;52.370;9.748;2023-05-25T05:25:28;10.10;99.90
8888;DHT22;4480;52.370;9.748;2023-05-25T05:27:55;10.10;99.90
8888;DHT22;4480;52.370;9.748;2023-05-25T05:30:22;10.10;99.90
8888;DHT22;4480;52.370;9.748;2023-05-25T05:32:49;10.10;99.90
8888;DHT22;4480;52.370;9.748;2023-05-25T05:35:16;10.10;99.90
8888;DHT22;4480;52.370;9.748;2023-05-25T05:37:44;10.10;99.90
8888;DHT22;4480;52.370;9.748;2023-05-25T05:40:12;10.10;99.90
8888;DHT22;4480;52.370;9.748;2023-05-25T05:42:39;10.10;99.90
8888;DHT22;4480;52.370;9.748;2023-05-25T05:45:07;10.00;99.90
8888;DHT22;4480;52.370;9.748;2023-05-25T05:47:34;10.00;99.90
8888;DHT22;4480;52.370;9.748;2023-05-25T05:50:01;10.10;99.90
8888;DHT22;4480;52.370;9.748;2023-05-25T05:52:28;10.10;99.90
8888;DHT22;4480;52.370;9.748;2023-05-25T05:54:56;10.10;99.90
8888;DHT22;4480;52.370;9.748;2023-05-25T05:57:23;10.00;99.90
8888;DHT22;4480;52.370;9.748;2023-05-25T05:59:50;10.00;99.90
8888;DHT22;4480;52.370;9.748;2023-05-25T06:02:16;10.00;99.90
8888;DHT22;4480;52.370;9.748;2023-05-25T06:04:43;10.00;99.90
8888;DHT22;4480;52.370;9.748;2023-05-25T06:07:10;10.00;99.90
8888;DHT22;4480;52.370;9.748;2023-05-25T06:09:37;10.00;99.90
8888;DHT22;4480;52.370;9.748;2023-05-25T06:12:05;10.10;99.90
8888;DHT22;4480;52.370;9.748;2023-05-25T06:14:32;10.10;99.90
8888;DHT22;4480;52.370;9.748;2023-05-25T06:16:59;10.10;99.90
8888;DHT22;4480;52.370;9.748;2023-05-25T06:19:26;10.20;99.90
8888;DHT22;4480;52.370;9.748;2023-05-25T06:21:53;10.20;99.90
8888;DHT22;4480;52.370;9.748;2023-05-25T06:24:20;10.20;99.90
8888;DHT22;4480;52.370;9.748;2023-05-25T06:26:47;10.10;99.90
8888;DHT22;4480;52.370;9.748;2023-05-25T06:29:15;10.10;99.90
8888;DHT22;4480;52.370;9.748;2023-05-25T06:31:42;10.20;99.90
8888;DHT22;4480;52.370;9.748;2023-05-25T06:34:08;10.20;99.90
8888;DHT22;4480;52.370;9.748;2023-05-25T06:36:35;10.20;99.90
8888;DHT22;4480;52.370;9.748;2023-05-25T06:39:02;10.30;99.90
8888;DHT22;4480;52.370;9.748;2023-05-25T06:41:29;10.30;99.90
8888;DHT22;4480;52.370;9.748;2023-05-25T06:43:56;10.30;99.90
8888;DHT22;4480;52.370;9.748;2023-05-25T06:46:24;10.40;99.90
8888;DHT22;4480;52.370;9.748;2023-05-25T06:48:51;10.50;99.90
8888;DHT22;4480;52.370;9.748;2023-05-25T06:51:17;10.60;99.90
8888;DHT22;4480;52.370;9.748;2023-05-25T06:53:44;10.80;99.90
8888;DHT22;4480;52.370;9.748;2023-05-25T06:56:11;10.90;99.90
8888;DHT22;4480;52.370;9.748;2023-05-25T06:58:38;11.00;99.90
8888;DHT22;4480;52.370;9.748;2023-05-25T07:01:05;11.20;99.90
8888;DHT22;4480;52.370;9.748;2023-05-25T07:03:33;11.30;99.90
8888;DHT22;4480;52.370;9.748;2023-05-25T07:06:00;11.50;99.90
8888;DHT22;4480;52.370;9.748;2023-05-25T07:08:27;11.70;99.90
8888;DHT22;4480;52.370;9.748;2023-05-25T07:10:54;11.80;99.90
8888;DHT22;4480;52.370;9.748;2023-05-25T07:13:21;11.90;99.90
8888;DHT22;4480;52.370;9.748;2023-05-25T07:15:47;12.00;99.90
8888;DHT22;4480;52.370;9.748;2023-05-25T07:18:15;12.20;99.90
8888;DHT22;4480;52.370;9.748;2023-05-25T07:20:43;12.40;99.90
8888;DHT22;4480;52.370;9.748;2023-05-25T07:23:10;12.50;99.90
8888;DHT22;4480;52.370;9.748;2023-05-25T07:25:39;12.60;99.90
8888;DHT22;4480;52.370;9.748;2023-05-25T07:28:06;12.80;99.90
8888;DHT22;4480;52.370;9.748;2023-05-25T07:30:33;12.90;99.90
8888;DHT22;4480;52.370;9.748;2023-05-25T07:33:00;13.00;99.90
8888;DHT22;4480;52.370;9.748;2023-05-25T07:35:27;13.10;99.90
8888;DHT22;4480;52.370;9.748;2023-05-25T07:37:59;13.10;99.90
8888;DHT22;4480;52.370;9.748;2023-05-25T07:40:27;13.10;99.90
8888;DHT22;4480;52.370;9.748;2023-05-25T07:42:54;13.10;99.90
8888;DHT22;4480;52.370;9.748;2023-05-25T07:45:20;13.10;99.90
8888;DHT22;4480;52.370;9.748;2023-05-25T07:47:47;13.20;99.90
8888;DHT22;4480;52.370;9.748;2023-05-25T07:50:14;13.30;99.90
8888;DHT22;4480;52.370;9.748;2023-05-25T07:52:41;13.40;99.90
8888;DHT22;4480;52.370;9.748;2023-05-25T07:55:10;13.60;99.90
8888;DHT22;4480;52.370;9.748;2023-05-25T07:57:37;13.70;99.90
8888;DHT22;4480;52.370;9.748;2023-05-25T08:00:04;13.80;99.90
8888;DHT22;4480;52.370;9.748;2023-05-25T08:02:32;13.90;99.90
8888;DHT22;4480;52.370;9.748;2023-05-25T08:04:59;14.00;99.90
8888;DHT22;4480;52.370;9.748;2023-05-25T08:07:30;14.00;99.90
8888;DHT22;4480;52.370;9.748;2023-05-25T08:09:57;14.00;99.90
8888;DHT22;4480;52.370;9.748;2023-05-25T08:12:26;13.80;99.90
8888;DHT22;4480;52.370;9.748;2023-05-25T08:14:54;13.80;99.90
8888;DHT22;4480;52.370;9.748;2023-05-25T08:17:20;13.90;99.90
8888;DHT22;4480;52.370;9.748;2023-05-25T08:19:47;13.90;99.90
8888;DHT22;4480;52.370;9.748;2023-05-25T08:22:14;13.80;99.90
8888;DHT22;4480;52.370;9.748;2023-05-25T08:24:41;13.80;99.90
8888;DHT22;4480;52.370;9.748;2023-05-25T08:27:08;13.80;99.90
8888;DHT22;4480;52.370;9.748;2023-05-25T08:29:36;13.90;99.90
8888;DHT22;4480;52.370;9.748;2023-05-25T08:32:03;13.90;99.90
8888;DHT22;4480;52.370;9.748;2023-05-25T08:34:30;13.90;99.90
8888;DHT22;4480;52.370;9.748;2023-05-25T08:36:57;13.90;99.90
8888;DHT22;4480;52.370;9.748;2023-05-25T08:39:23;13.90;99.90
8888;DHT22;4480;52.370;9.748;2023-05-25T08:41:51;13.90;99.90
8888;DHT22;4480;52.370;9.748;2023-05-25T08:44:18;13.90;99.90
8888;DHT22;4480;52.370;9.748;2023-05-25T08:46:47;13.80;99.90
8888;DHT22;4480;52.370;9.748;2023-05-25T08:49:15;13.80;99.90
8888;DHT22;4480;52.370;9.748;2023-05-25T08:51:47;13.70;99.90
8888;DHT22;4480;52.370;9.748;2023-05-25T08:54:17;13.80;99.90
8888;DHT22;4480;52.370;9.748;2023-05-25T08:56:48;13.90;99.90
8888;DHT22;4480;52.370;9.748;2023-05-25T08:59:25;14.00;99.90
8888;DHT22;4480;52.370;9.748;2023-05-25T09:02:04;14.00;99.90
8888;DHT22;4480;52.370;9.748;2023-05-25T09:04:33;14.00;99.90
8888;DHT22;4480;52.370;9.748;2023-05-25T09:07:00;13.90;99.90
8888;DHT22;4480;52.370;9.748;2023-05-25T09:09:28;13.80;99.90
8888;DHT22;4480;52.370;9.748;2023-05-25T09:11:56;13.80;99.90
8888;DHT22;4480;52.370;9.748;2023-05-25T09:14:23;13.80;99.90
8888;DHT22;4480;52.370;9.748;2023-05-25T09:16:50;13.90;99.90
8888;DHT22;4480;52.370;9.748;2023-05-25T09:19:18;14.00;99.90
8888;DHT22;4480;52.370;9.748;2023-05-25T09:21:45;14.10;99.90
8888;DHT22;4480;52.370;9.748;2023-05-25T09:24:12;14.00;99.90
8888;DHT22;4480;52.370;9.748;2023-05-25T09:26:39;13.90;99.90
8888;DHT22;4480;52.370;9.748;2023-05-25T09:29:09;13.70;99.90
8888;DHT22;4480;52.370;9.748;2023-05-25T09:31:38;13.70;99.90
8888;DHT22;4480;52.370;9.748;2023-05-25T09:34:10;13.80;99.90
8888;DHT22;4480;52.370;9.748;2023-05-25T09:36:38;13.90;99.90
8888;DHT22;4480;52.370;9.748;2023-05-25T09:39:08;14.10;99.90
8888;DHT22;4480;52.370;9.748;2023-05-25T09:41:34;14.20;99.90
8888;DHT22;4480;52.370;9.748;2023-05-25T09:44:03;14.30;99.90
8888;DHT22;4480;52.370;9.748;2023-05-25T09:46:30;14.40;99.90
8888;DHT22;4480;52.370;9.748;2023-05-25T09:49:02;14.50;99.90
8888;DHT22;4480;52.370;9.748;2023-05-25T09:51:29;14.50;99.90
8888;DHT22;4480;52.370;9.748;2023-05-25T09:53:59;14.60;99.90
8888;DHT22;4480;52.370;9.748;2023-05-25T09:56:26;14.70;99.70
8888;DHT22;4480;52.370;9.748;2023-05-25T09:58:53;14.70;99.40
8888;DHT22;4480;52.370;9.748;2023-05-25T10:01:22;14.70;99.20
8888;DHT22;4480;52.370;9.748;2023-05-25T10:03:49;14.80;98.70
8888;DHT22;4480;52.370;9.748;2023-05-25T10:06:16;14.70;98.20
8888;DHT22;4480;52.370;9.748;2023-05-25T10:08:44;14.70;98.30
8888;DHT22;4480;52.370;9.748;2023-05-25T10:11:13;14.70;97.90
8888;DHT22;4480;52.370;9.748;2023-05-25T10:13:43;14.60;97.90
8888;DHT22;4480;52.370;9.748;2023-05-25T10:16:14;14.60;97.70
8888;DHT22;4480;52.370;9.748;2023-05-25T10:18:46;14.70;97.50
8888;DHT22;4480;52.370;9.748;2023-05-25T10:21:15;14.70;97.30
8888;DHT22;4480;52.370;9.748;2023-05-25T10:23:44;14.80;97.30
8888;DHT22;4480;52.370;9.748;2023-05-25T10:26:17;14.90;97.40
8888;DHT22;4480;52.370;9.748;2023-05-25T10:28:49;14.90;96.90
8888;DHT22;4480;52.370;9.748;2023-05-25T10:31:17;15.00;96.60
8888;DHT22;4480;52.370;9.748;2023-05-25T10:33:44;15.10;95.90
8888;DHT22;4480;52.370;9.748;2023-05-25T10:36:12;15.30;95.10
8888;DHT22;4480;52.370;9.748;2023-05-25T10:38:40;15.30;94.50
8888;DHT22;4480;52.370;9.748;2023-05-25T10:41:09;15.40;94.00
8888;DHT22;4480;52.370;9.748;2023-05-25T10:43:38;15.30;93.50
8888;DHT22;4480;52.370;9.748;2023-05-25T10:46:06;15.20;93.80
8888;DHT22;4480;52.370;9.748;2023-05-25T10:48:36;15.20;94.10
8888;DHT22;4480;52.370;9.748;2023-05-25T10:51:04;15.20;94.20
8888;DHT22;4480;52.370;9.748;2023-05-25T10:53:31;15.20;93.80
8888;DHT22;4480;52.370;9.748;2023-05-25T10:56:02;15.20;93.40
8888;DHT22;4480;52.370;9.748;2023-05-25T10:58:30;15.20;93.20
8888;DHT22;4480;52.370;9.748;2023-05-25T11:00:59;15.20;93.10
8888;DHT22;4480;52.370;9.748;2023-05-25T11:03:52;15.20;92.30
8888;DHT22;4480;52.370;9.748;2023-05-25T11:06:21;15.10;92.40
8888;DHT22;4480;52.370;9.748;2023-05-25T11:08:49;15.00;93.00
8888;DHT22;4480;52.370;9.748;2023-05-25T11:11:16;15.10;93.20
8888;DHT22;4480;52.370;9.748;2023-05-25T11:13:43;15.10;92.70
8888;DHT22;4480;52.370;9.748;2023-05-25T11:16:22;15.10;92.70
8888;DHT22;4480;52.370;9.748;2023-05-25T11:19:01;15.20;92.90
8888;DHT22;4480;52.370;9.748;2023-05-25T11:21:42;15.30;92.20
8888;DHT22;4480;52.370;9.748;2023-05-25T11:24:16;15.30;91.60
8888;DHT22;4480;52.370;9.748;2023-05-25T11:26:57;15.30;91.40
8888;DHT22;4480;52.370;9.748;2023-05-25T11:29:29;15.30;91.60
8888;DHT22;4480;52.370;9.748;2023-05-25T11:31:58;15.40;91.60
8888;DHT22;4480;52.370;9.748;2023-05-25T11:34:25;15.60;90.90
8888;DHT22;4480;52.370;9.748;2023-05-25T11:36:55;15.80;90.60
8888;DHT22;4480;52.370;9.748;2023-05-25T11:39:23;16.00;89.90
8888;DHT22;4480;52.370;9.748;2023-05-25T11:41:53;16.20;87.10
8888;DHT22;4480;52.370;9.748;2023-05-25T11:44:25;16.40;85.20
8888;DHT22;4480;52.370;9.748;2023-05-25T11:46:53;16.40;83.50
8888;DHT22;4480;52.370;9.748;2023-05-25T11:49:23;16.30;82.90
8888;DHT22;4480;52.370;9.748;2023-05-25T11:51:50;16.30;83.40
8888;DHT22;4480;52.370;9.748;2023-05-25T11:54:21;16.30;83.80
8888;DHT22;4480;52.370;9.748;2023-05-25T11:56:48;16.40;82.30
8888;DHT22;4480;52.370;9.748;2023-05-25T11:59:15;16.40;81.90
8888;DHT22;4480;52.370;9.748;2023-05-25T12:01:42;16.40;81.90
8888;DHT22;4480;52.370;9.748;2023-05-25T12:04:10;16.50;81.50
8888;DHT22;4480;52.370;9.748;2023-05-25T12:06:38;16.70;80.60
8888;DHT22;4480;52.370;9.748;2023-05-25T12:09:10;16.80;79.40
8888;DHT22;4480;52.370;9.748;2023-05-25T12:11:37;17.10;77.80
8888;DHT22;4480;52.370;9.748;2023-05-25T12:14:06;17.20;76.30
8888;DHT22;4480;52.370;9.748;2023-05-25T12:16:33;17.30;75.10
8888;DHT22;4480;52.370;9.748;2023-05-25T12:19:01;17.40;74.30
8888;DHT22;4480;52.370;9.748;2023-05-25T12:21:28;17.50;72.90
8888;DHT22;4480;52.370;9.748;2023-05-25T12:23:57;17.40;71.90
8888;DHT22;4480;52.370;9.748;2023-05-25T12:26:24;17.30;71.50
8888;DHT22;4480;52.370;9.748;2023-05-25T12:28:58;17.00;71.00
8888;DHT22;4480;52.370;9.748;2023-05-25T12:31:27;16.90;72.40
8888;DHT22;4480;52.370;9.748;2023-05-25T12:34:07;16.80;72.00
8888;DHT22;4480;52.370;9.748;2023-05-25T12:36:39;16.70;72.20
8888;DHT22;4480;52.370;9.748;2023-05-25T12:39:08;16.90;72.20
8888;DHT22;4480;52.370;9.748;2023-05-25T12:41:49;17.30;70.40
8888;DHT22;4480;52.370;9.748;2023-05-25T12:44:18;17.70;67.90
8888;DHT22;4480;52.370;9.748;2023-05-25T12:46:45;18.20;65.70
8888;DHT22;4480;52.370;9.748;2023-05-25T12:49:26;18.40;63.10
8888;DHT22;4480;52.370;9.748;2023-05-25T12:51:54;18.60;62.10
8888;DHT22;4480;52.370;9.748;2023-05-25T12:54:40;18.70;61.40
8888;DHT22;4480;52.370;9.748;2023-05-25T12:57:10;18.80;60.50
8888;DHT22;4480;52.370;9.748;2023-05-25T12:59:38;18.90;59.90
8888;DHT22;4480;52.370;9.748;2023-05-25T13:02:06;18.80;59.80
8888;DHT22;4480;52.370;9.748;2023-05-25T13:04:33;18.80;59.70
8888;DHT22;4480;52.370;9.748;2023-05-25T13:07:00;18.90;59.60
8888;DHT22;4480;52.370;9.748;2023-05-25T13:09:27;18.90;59.30
8888;DHT22;4480;52.370;9.748;2023-05-25T13:11:56;18.80;58.60
8888;DHT22;4480;52.370;9.748;2023-05-25T13:14:23;18.80;58.90
8888;DHT22;4480;52.370;9.748;2023-05-25T13:16:51;19.00;58.80
8888;DHT22;4480;52.370;9.748;2023-05-25T13:19:20;19.30;57.90
8888;DHT22;4480;52.370;9.748;2023-05-25T13:21:47;19.40;56.90
8888;DHT22;4480;52.370;9.748;2023-05-25T13:24:15;19.20;57.00
8888;DHT22;4480;52.370;9.748;2023-05-25T13:26:42;19.00;57.20
8888;DHT22;4480;52.370;9.748;2023-05-25T13:29:11;18.80;56.80
8888;DHT22;4480;52.370;9.748;2023-05-25T13:31:37;18.60;57.20
8888;DHT22;4480;52.370;9.748;2023-05-25T13:34:04;18.30;57.80
8888;DHT22;4480;52.370;9.748;2023-05-25T13:36:31;18.30;58.40
8888;DHT22;4480;52.370;9.748;2023-05-25T13:38:59;18.30;58.60
8888;DHT22;4480;52.370;9.748;2023-05-25T13:41:26;18.40;58.40
8888;DHT22;4480;52.370;9.748;2023-05-25T13:43:53;18.50;58.30
8888;DHT22;4480;52.370;9.748;2023-05-25T13:46:21;18.80;58.00
8888;DHT22;4480;52.370;9.748;2023-05-25T13:48:48;19.00;57.10
8888;DHT22;4480;52.370;9.748;2023-05-25T13:51:15;19.20;56.40
8888;DHT22;4480;52.370;9.748;2023-05-25T13:53:43;19.30;55.60
8888;DHT22;4480;52.370;9.748;2023-05-25T13:56:10;19.40;55.30
8888;DHT22;4480;52.370;9.748;2023-05-25T13:58:37;19.30;55.10
8888;DHT22;4480;52.370;9.748;2023-05-25T14:01:04;19.00;55.30
8888;DHT22;4480;52.370;9.748;2023-05-25T14:03:32;19.00;55.60
8888;DHT22;4480;52.370;9.748;2023-05-25T14:05:59;19.00;55.70
8888;DHT22;4480;52.370;9.748;2023-05-25T14:08:26;19.20;55.20
8888;DHT22;4480;52.370;9.748;2023-05-25T14:10:53;19.30;54.60
8888;DHT22;4480;52.370;9.748;2023-05-25T14:13:20;19.20;53.90
8888;DHT22;4480;52.370;9.748;2023-05-25T14:15:46;19.00;53.90
8888;DHT22;4480;52.370;9.748;2023-05-25T14:18:13;18.80;54.30
8888;DHT22;4480;52.370;9.748;2023-05-25T14:20:42;18.60;54.50
8888;DHT22;4480;52.370;9.748;2023-05-25T14:23:08;18.60;54.60
8888;DHT22;4480;52.370;9.748;2023-05-25T14:25:35;18.70;54.40
8888;DHT22;4480;52.370;9.748;2023-05-25T14:28:02;18.70;54.00
8888;DHT22;4480;52.370;9.748;2023-05-25T14:30:29;18.80;53.90
8888;DHT22;4480;52.370;9.748;2023-05-25T14:32:56;19.00;53.80
8888;DHT22;4480;52.370;9.748;2023-05-25T14:35:22;19.10;53.40
8888;DHT22;4480;52.370;9.748;2023-05-25T14:37:51;19.20;53.40
8888;DHT22;4480;52.370;9.748;2023-05-25T14:40:17;19.10;53.40
8888;DHT22;4480;52.370;9.748;2023-05-25T14:42:46;19.00;53.60
8888;DHT22;4480;52.370;9.748;2023-05-25T14:45:13;18.90;53.90
8888;DHT22;4480;52.370;9.748;2023-05-25T14:47:40;18.80;54.10
8888;DHT22;4480;52.370;9.748;2023-05-25T14:50:07;18.90;54.20
8888;DHT22;4480;52.370;9.748;2023-05-25T14:52:34;19.00;53.90
8888;DHT22;4480;52.370;9.748;2023-05-25T14:55:03;19.30;53.60
8888;DHT22;4480;52.370;9.748;2023-05-25T14:57:30;19.50;53.00
8888;DHT22;4480;52.370;9.748;2023-05-25T14:59:57;19.60;52.70
8888;DHT22;4480;52.370;9.748;2023-05-25T15:02:23;19.70;52.50
8888;DHT22;4480;52.370;9.748;2023-05-25T15:04:50;19.80;52.40
8888;DHT22;4480;52.370;9.748;2023-05-25T15:07:18;19.80;52.00
8888;DHT22;4480;52.370;9.748;2023-05-25T15:09:45;19.90;51.80
8888;DHT22;4480;52.370;9.748;2023-05-25T15:12:14;20.20;51.50
8888;DHT22;4480;52.370;9.748;2023-05-25T15:14:41;20.20;50.70
8888;DHT22;4480;52.370;9.748;2023-05-25T15:17:08;20.20;50.70
8888;DHT22;4480;52.370;9.748;2023-05-25T15:19:35;20.20;50.70
8888;DHT22;4480;52.370;9.748;2023-05-25T15:22:02;20.20;50.40
8888;DHT22;4480;52.370;9.748;2023-05-25T15:24:29;20.00;50.20
8888;DHT22;4480;52.370;9.748;2023-05-25T15:26:56;20.00;50.40
8888;DHT22;4480;52.370;9.748;2023-05-25T15:29:24;19.90;50.20
8888;DHT22;4480;52.370;9.748;2023-05-25T15:31:51;19.90;50.20
8888;DHT22;4480;52.370;9.748;2023-05-25T15:34:18;19.70;50.30
8888;DHT22;4480;52.370;9.748;2023-05-25T15:36:45;19.60;50.50
8888;DHT22;4480;52.370;9.748;2023-05-25T15:39:12;19.40;50.80
8888;DHT22;4480;52.370;9.748;2023-05-25T15:41:39;19.20;51.20
8888;DHT22;4480;52.370;9.748;2023-05-25T15:44:06;19.00;51.70
8888;DHT22;4480;52.370;9.748;2023-05-25T15:46:38;19.00;52.20
8888;DHT22;4480;52.370;9.748;2023-05-25T15:49:05;19.20;52.90
8888;DHT22;4480;52.370;9.748;2023-05-25T15:51:36;19.50;51.90
8888;DHT22;4480;52.370;9.748;2023-05-25T15:54:03;19.60;51.50
8888;DHT22;4480;52.370;9.748;2023-05-25T15:56:30;19.60;51.50
8888;DHT22;4480;52.370;9.748;2023-05-25T15:58:57;19.60;51.70
8888;DHT22;4480;52.370;9.748;2023-05-25T16:01:24;19.40;51.80
8888;DHT22;4480;52.370;9.748;2023-05-25T16:03:52;19.30;52.30
8888;DHT22;4480;52.370;9.748;2023-05-25T16:06:19;19.20;52.60
8888;DHT22;4480;52.370;9.748;2023-05-25T16:08:46;19.20;52.70
8888;DHT22;4480;52.370;9.748;2023-05-25T16:11:12;19.20;53.00
8888;DHT22;4480;52.370;9.748;2023-05-25T16:13:39;19.10;53.20
8888;DHT22;4480;52.370;9.748;2023-05-25T16:16:06;19.20;53.30